createdAt,value
2022-10-06T00:01:21.996Z,66.75
2022-10-06T00:03:51.017Z,66.83
2022-10-06T00:06:20.134Z,66.89
2022-10-06T00:09:25.937Z,66.90
2022-10-06T00:11:56.694Z,66.91
2022-10-06T00:14:43.697Z,66.81
2022-10-06T00:17:15.587Z,66.88
2022-10-06T00:19:46.454Z,66.93
2022-10-06T00:22:15.549Z,66.97
2022-10-06T00:24:44.800Z,66.80
2022-10-06T00:27:14.046Z,66.75
2022-10-06T00:29:43.119Z,66.81
2022-10-06T00:32:12.292Z,66.71
2022-10-06T00:34:41.224Z,66.65
2022-10-06T00:37:10.304Z,66.60
2022-10-06T00:39:39.251Z,66.65
2022-10-06T00:42:29.916Z,66.62
2022-10-06T00:45:06.439Z,66.66
2022-10-06T00:47:35.864Z,66.95
2022-10-06T00:50:05.476Z,66.79
2022-10-06T00:52:35.333Z,66.87
2022-10-06T00:55:09.389Z,66.87
2022-10-06T00:57:40.713Z,66.96
2022-10-06T01:00:10.541Z,67.14
2022-10-06T01:02:51.057Z,67.31
2022-10-06T01:05:30.454Z,67.12
2022-10-06T01:07:59.980Z,67.05
2022-10-06T01:10:29.029Z,67.23
2022-10-06T01:12:58.302Z,67.15
2022-10-06T01:15:28.949Z,67.20
2022-10-06T01:18:09.949Z,67.19
2022-10-06T01:20:44.431Z,67.22
2022-10-06T01:23:13.695Z,67.32
2022-10-06T01:25:42.805Z,67.30
2022-10-06T01:28:14.091Z,67.25
2022-10-06T01:30:54.811Z,67.36
2022-10-06T01:33:25.481Z,67.41
2022-10-06T01:35:54.749Z,67.46
2022-10-06T01:38:25.153Z,67.34
2022-10-06T01:40:59.749Z,67.37
2022-10-06T01:43:28.731Z,67.58
2022-10-06T01:45:59.188Z,67.61
2022-10-06T01:48:28.594Z,67.69
2022-10-06T01:50:59.740Z,67.67
2022-10-06T01:53:29.061Z,67.95
2022-10-06T01:55:59.971Z,68.08
2022-10-06T01:58:31.074Z,68.03
2022-10-06T02:01:10.037Z,68.10
2022-10-06T02:03:40.764Z,68.24
2022-10-06T02:06:11.179Z,68.19
2022-10-06T02:08:40.343Z,68.49
2022-10-06T02:11:12.202Z,68.74
2022-10-06T02:13:44.163Z,68.99
2022-10-06T02:16:14.316Z,69.11
2022-10-06T02:18:44.970Z,69.16
2022-10-06T02:21:20.219Z,69.12
2022-10-06T02:23:49.369Z,69.14
2022-10-06T02:26:19.270Z,69.32
2022-10-06T02:28:52.159Z,69.52
2022-10-06T02:31:24.358Z,69.75
2022-10-06T02:33:54.385Z,69.77
2022-10-06T02:36:25.106Z,69.69
2022-10-06T02:38:54.605Z,69.67
2022-10-06T02:41:24.405Z,69.50
2022-10-06T02:43:55.325Z,69.38
2022-10-06T02:46:25.736Z,69.48
2022-10-06T02:48:55.216Z,69.54
2022-10-06T02:51:25.397Z,69.66
2022-10-06T02:53:55.141Z,69.85
2022-10-06T02:56:29.412Z,69.94
2022-10-06T02:58:59.539Z,70.08
2022-10-06T03:01:32.645Z,70.16
2022-10-06T03:04:06.211Z,70.34
2022-10-06T03:06:37.241Z,70.29
2022-10-06T03:09:10.694Z,70.26
2022-10-06T03:11:43.535Z,70.52
2022-10-06T03:14:21.363Z,70.71
2022-10-06T03:16:56.834Z,70.52
2022-10-06T03:19:28.269Z,70.56
2022-10-06T03:21:57.336Z,70.56
2022-10-06T03:24:37.497Z,70.64
2022-10-06T03:27:06.959Z,70.83
2022-10-06T03:29:36.163Z,70.91
2022-10-06T03:32:05.626Z,70.85
2022-10-06T03:34:35.874Z,70.93
2022-10-06T03:37:06.282Z,70.93
2022-10-06T03:39:35.752Z,71.02
2022-10-06T03:42:04.619Z,71.11
2022-10-06T03:44:35.571Z,71.15
2022-10-06T03:47:04.848Z,71.05
2022-10-06T03:49:34.568Z,71.03
2022-10-06T03:52:03.585Z,71.16
2022-10-06T03:54:36.263Z,71.14
2022-10-06T03:57:05.198Z,71.06
2022-10-06T03:59:34.885Z,71.06
2022-10-06T04:02:05.674Z,70.95
2022-10-06T04:04:38.767Z,71.08
2022-10-06T04:07:11.549Z,70.78
2022-10-06T04:09:41.374Z,70.62
2022-10-06T04:12:12.113Z,70.55
2022-10-06T04:14:41.947Z,70.45
2022-10-06T04:17:11.028Z,70.40
2022-10-06T04:19:42.107Z,70.31
2022-10-06T04:22:11.111Z,70.22
2022-10-06T04:24:40.289Z,70.11
2022-10-06T04:27:27.523Z,69.92
2022-10-06T04:30:15.423Z,69.83
2022-10-06T04:32:46.181Z,69.73
2022-10-06T04:35:15.492Z,69.58
2022-10-06T04:37:44.547Z,69.58
2022-10-06T04:40:13.834Z,69.44
2022-10-06T04:42:43.222Z,69.35
2022-10-06T04:45:16.008Z,69.41
2022-10-06T04:47:48.725Z,69.38
2022-10-06T04:50:18.573Z,69.51
2022-10-06T04:53:05.947Z,69.43
2022-10-06T04:55:35.026Z,69.19
2022-10-06T04:58:04.799Z,69.06
2022-10-06T05:00:34.041Z,69.06
2022-10-06T05:03:02.928Z,68.99
2022-10-06T05:05:32.025Z,68.92
2022-10-06T05:08:01.139Z,68.89
2022-10-06T05:10:30.946Z,68.94
2022-10-06T05:12:59.980Z,68.94
2022-10-06T05:15:29.267Z,68.89
2022-10-06T05:17:58.214Z,68.79
2022-10-06T05:20:28.529Z,68.49
2022-10-06T05:22:58.038Z,68.37
2022-10-06T05:25:29.774Z,68.28
2022-10-06T05:28:10.844Z,68.16
2022-10-06T05:30:58.051Z,68.00
2022-10-06T05:33:34.511Z,67.83
2022-10-06T05:36:18.766Z,67.86
2022-10-06T05:38:59.635Z,67.65
2022-10-06T05:41:42.668Z,67.49
2022-10-06T05:44:18.652Z,67.34
2022-10-06T05:46:54.192Z,67.27
2022-10-06T05:49:26.991Z,67.06
2022-10-06T05:51:59.791Z,66.97
2022-10-06T05:54:40.824Z,66.85
2022-10-06T06:01:56.403Z,66.58
2022-10-06T06:05:03.494Z,66.56
2022-10-06T06:08:28.045Z,66.21
2022-10-06T06:11:35.770Z,66.27
2022-10-06T06:15:25.350Z,66.28
2022-10-06T06:18:54.653Z,66.22
2022-10-06T06:27:13.240Z,66.39
2022-10-06T07:03:55.940Z,64.14
2022-10-06T07:06:32.414Z,63.44
2022-10-06T07:09:07.780Z,62.88
2022-10-06T07:11:43.276Z,61.86
2022-10-06T07:14:24.504Z,60.93
2022-10-06T07:17:15.696Z,59.36
2022-10-06T07:20:10.718Z,58.56
2022-10-06T07:22:59.846Z,57.15
2022-10-06T07:25:55.152Z,56.79
2022-10-06T07:28:56.366Z,55.76
2022-10-06T07:31:44.603Z,53.97
2022-10-06T07:34:28.938Z,53.26
2022-10-06T07:37:39.725Z,53.41
2022-10-06T07:40:34.030Z,53.68
2022-10-06T07:43:18.567Z,54.46
2022-10-06T07:46:28.707Z,54.79
2022-10-06T07:49:25.388Z,55.60
2022-10-06T07:52:13.146Z,55.92
2022-10-06T07:55:04.373Z,56.48
2022-10-06T07:58:17.768Z,56.43
2022-10-06T08:01:34.214Z,56.67
2022-10-06T08:04:22.036Z,56.52
2022-10-06T08:06:54.705Z,56.92
2022-10-06T08:09:27.581Z,57.21
2022-10-06T08:12:27.569Z,57.20
2022-10-06T08:22:38.858Z,57.23
2022-10-06T08:27:41.837Z,57.23
2022-10-06T08:29:59.619Z,57.34
2022-10-06T08:32:29.413Z,57.59
2022-10-06T08:35:02.068Z,57.69
2022-10-06T08:37:37.965Z,57.89
2022-10-06T08:40:19.145Z,58.02
2022-10-06T08:43:08.322Z,58.38
2022-10-06T08:46:22.483Z,58.67
2022-10-06T08:49:35.724Z,59.15
2022-10-06T08:53:00.330Z,59.59
2022-10-06T08:56:11.020Z,59.53
2022-10-06T08:59:09.972Z,58.96
2022-10-06T09:02:52.780Z,58.37
2022-10-06T09:05:41.372Z,58.32
2022-10-06T09:09:48.676Z,58.39
2022-10-06T09:13:00.775Z,58.45
2022-10-06T09:20:25.194Z,58.60
2022-10-06T09:32:03.127Z,56.94
2022-10-06T09:35:05.923Z,56.53
2022-10-06T09:38:53.743Z,56.75
2022-10-06T09:42:21.115Z,57.43
2022-10-06T09:45:37.035Z,57.65
2022-10-06T09:48:46.951Z,58.12
2022-10-06T09:52:25.435Z,58.39
2022-10-06T09:55:16.154Z,58.54
2022-10-06T09:58:04.936Z,58.69
2022-10-06T10:01:02.376Z,58.48
2022-10-06T10:04:21.029Z,57.00
2022-10-06T10:07:29.766Z,53.87
2022-10-06T10:10:50.622Z,51.83
2022-10-06T10:14:06.181Z,51.28
2022-10-06T10:17:21.178Z,51.16
2022-10-06T10:20:35.502Z,50.98
2022-10-06T10:24:07.913Z,50.43
2022-10-06T10:27:20.300Z,50.53
2022-10-06T10:30:42.949Z,50.49
2022-10-06T10:33:26.977Z,50.56
2022-10-06T10:36:22.594Z,50.48
2022-10-06T10:39:00.299Z,50.63
2022-10-06T10:41:47.688Z,51.21
2022-10-06T10:45:07.198Z,51.51
2022-10-06T10:48:25.265Z,51.51
2022-10-06T10:51:45.369Z,52.01
2022-10-06T10:59:19.657Z,50.53
2022-10-06T11:02:45.537Z,49.63
2022-10-06T11:06:14.017Z,48.47
2022-10-06T11:09:57.222Z,48.29
2022-10-06T11:13:16.516Z,48.71
2022-10-06T11:16:37.363Z,49.30
2022-10-06T11:29:27.386Z,49.91
2022-10-06T11:32:32.906Z,50.22
2022-10-06T11:35:15.352Z,50.49
2022-10-06T11:38:21.270Z,51.15
2022-10-06T11:41:36.976Z,51.47
2022-10-06T11:44:32.613Z,51.49
2022-10-06T11:47:45.980Z,51.00
2022-10-06T11:50:45.379Z,50.59
2022-10-06T11:53:37.274Z,50.41
2022-10-06T11:56:18.407Z,50.25
2022-10-06T11:59:30.382Z,49.72
2022-10-06T12:02:32.709Z,49.36
2022-10-06T12:05:35.651Z,49.32
2022-10-06T12:08:02.318Z,49.47
2022-10-06T12:10:32.660Z,49.54
2022-10-06T12:20:38.678Z,49.52
2022-10-06T12:24:02.853Z,49.56
2022-10-06T12:26:49.538Z,49.58
2022-10-06T12:30:26.586Z,49.58
2022-10-06T12:33:05.207Z,49.43
2022-10-06T12:35:42.642Z,49.01
2022-10-06T12:38:44.637Z,48.68
2022-10-06T12:41:16.465Z,48.50
2022-10-06T12:43:55.872Z,48.43
2022-10-06T12:47:06.237Z,48.40
2022-10-06T12:50:06.606Z,48.38
2022-10-06T12:52:56.482Z,48.36
2022-10-06T13:02:50.844Z,48.53
2022-10-06T13:09:13.468Z,48.14
2022-10-06T13:18:54.344Z,47.46
2022-10-06T13:29:37.833Z,47.16
2022-10-06T13:32:21.488Z,46.95
2022-10-06T13:35:26.534Z,46.15
2022-10-06T13:38:06.146Z,45.27
2022-10-06T13:41:13.688Z,44.74
2022-10-06T13:44:11.980Z,44.24
2022-10-06T13:47:40.306Z,43.94
2022-10-06T13:50:20.796Z,44.00
2022-10-06T13:56:52.161Z,43.74
2022-10-06T13:59:53.520Z,44.03
2022-10-06T14:03:02.094Z,44.27
2022-10-06T14:05:46.834Z,44.38
2022-10-06T14:08:33.933Z,44.38
2022-10-06T14:11:31.611Z,44.35
2022-10-06T14:14:12.114Z,44.61
2022-10-06T14:17:14.158Z,44.92
2022-10-06T14:20:45.068Z,45.03
2022-10-06T14:23:53.523Z,45.44
2022-10-06T14:29:50.006Z,46.25
2022-10-06T14:32:53.404Z,46.44
2022-10-06T14:35:59.987Z,46.52
2022-10-06T14:38:50.865Z,46.52
2022-10-06T14:42:05.787Z,46.51
2022-10-06T14:45:10.937Z,46.38
2022-10-06T14:48:21.683Z,46.45
2022-10-06T14:51:08.065Z,46.55
2022-10-06T14:53:46.070Z,46.54
2022-10-06T14:56:24.579Z,46.59
2022-10-06T14:59:15.230Z,46.51
2022-10-06T15:02:26.001Z,46.56
2022-10-06T15:05:07.617Z,46.60
2022-10-06T15:08:11.169Z,46.17
2022-10-06T15:10:53.551Z,45.95
2022-10-06T15:13:52.561Z,45.82
2022-10-06T15:16:33.486Z,45.80
2022-10-06T15:19:25.750Z,45.82
2022-10-06T15:22:13.849Z,45.83
2022-10-06T15:25:14.932Z,46.01
2022-10-06T15:28:25.046Z,46.03
2022-10-06T15:31:11.683Z,46.08
2022-10-06T15:33:57.352Z,46.30
2022-10-06T15:39:38.716Z,47.02
2022-10-06T15:42:16.907Z,47.23
2022-10-06T15:45:12.684Z,47.55
2022-10-06T15:48:28.209Z,47.94
2022-10-06T15:55:11.668Z,48.55
2022-10-06T15:57:57.573Z,48.66
2022-10-06T16:01:51.478Z,48.55
2022-10-06T16:05:30.107Z,48.72
2022-10-06T16:07:50.595Z,48.65
2022-10-06T16:10:42.916Z,48.65
2022-10-06T16:13:34.863Z,48.70
2022-10-06T16:20:14.377Z,48.70
2022-10-06T16:22:55.365Z,48.75
2022-10-06T16:26:07.363Z,48.89
2022-10-06T16:29:03.953Z,49.23
2022-10-06T16:31:59.397Z,49.71
2022-10-06T16:35:06.854Z,49.81
2022-10-06T16:37:57.918Z,50.03
2022-10-06T16:41:27.992Z,50.27
2022-10-06T16:43:50.609Z,50.61
2022-10-06T16:46:43.068Z,50.81
2022-10-06T16:49:47.060Z,51.24
2022-10-06T16:58:05.124Z,52.12
2022-10-06T17:04:34.494Z,52.81
2022-10-06T17:10:44.013Z,53.20
2022-10-06T17:14:00.958Z,53.44
2022-10-06T17:17:03.276Z,53.71
2022-10-06T17:20:07.634Z,53.96
2022-10-06T17:26:32.487Z,55.04
2022-10-06T17:30:26.838Z,55.48
2022-10-06T17:33:36.763Z,55.80
2022-10-06T17:36:55.156Z,56.04
2022-10-06T17:48:33.875Z,57.11
2022-10-06T18:44:17.878Z,61.04
2022-10-06T18:48:15.277Z,61.60
2022-10-06T18:52:28.908Z,61.79
2022-10-06T19:37:00.220Z,63.72
2022-10-06T19:40:27.795Z,64.02
2022-10-06T19:44:01.608Z,63.95
2022-10-06T19:47:17.436Z,64.11
2022-10-06T20:01:39.151Z,64.60
2022-10-06T20:25:30.545Z,59.95
2022-10-06T20:27:58.157Z,61.22
2022-10-06T20:40:04.886Z,63.55
2022-10-06T20:50:58.276Z,64.76
2022-10-06T20:53:43.654Z,64.95
2022-10-06T20:56:46.228Z,64.96
2022-10-06T21:04:08.038Z,65.86
2022-10-06T21:07:23.575Z,66.03
2022-10-06T21:10:33.343Z,66.08
2022-10-06T21:13:27.412Z,66.11
2022-10-06T21:17:44.336Z,66.29
2022-10-06T21:21:05.136Z,66.43
2022-10-06T21:28:37.536Z,67.40
2022-10-06T21:35:48.233Z,67.54
2022-10-06T21:38:28.871Z,67.75
2022-10-06T21:46:26.898Z,67.86
2022-10-06T22:00:18.715Z,68.01
2022-10-06T22:03:11.381Z,68.20
2022-10-06T22:05:57.692Z,68.15
2022-10-06T22:08:53.177Z,68.22
2022-10-06T22:11:41.693Z,68.23
2022-10-06T22:14:32.429Z,68.34
2022-10-06T22:17:18.951Z,68.44
2022-10-06T22:19:55.417Z,68.52
2022-10-06T22:22:42.272Z,68.59
2022-10-06T22:25:36.106Z,68.64
2022-10-06T22:28:21.033Z,68.72
2022-10-06T22:31:12.882Z,68.73
2022-10-06T22:34:14.036Z,68.78
2022-10-06T22:36:49.296Z,68.95
2022-10-06T22:39:32.094Z,68.89
2022-10-06T22:42:06.626Z,68.95
2022-10-06T22:44:50.292Z,68.97
2022-10-06T22:47:25.949Z,69.07
2022-10-06T22:50:25.349Z,69.15
2022-10-06T22:53:41.029Z,69.30
2022-10-06T22:56:21.703Z,69.38
2022-10-06T22:59:23.648Z,69.07
2022-10-06T23:02:22.471Z,68.81
2022-10-06T23:05:08.832Z,68.84
2022-10-06T23:08:40.241Z,68.94
2022-10-06T23:11:29.186Z,69.05
2022-10-06T23:14:34.176Z,69.17
2022-10-06T23:17:17.967Z,69.25
2022-10-06T23:20:18.611Z,69.57
2022-10-06T23:22:54.296Z,69.92
2022-10-06T23:25:32.070Z,69.97
2022-10-06T23:28:10.418Z,70.06
2022-10-06T23:31:12.138Z,70.26
2022-10-06T23:36:08.028Z,70.31
2022-10-06T23:37:40.021Z,70.25
2022-10-06T23:40:25.803Z,70.38
2022-10-06T23:43:37.988Z,70.59
2022-10-06T23:46:36.269Z,70.51
2022-10-06T23:49:36.888Z,70.51
2022-10-06T23:52:34.685Z,70.66
2022-10-06T23:55:13.912Z,70.60
2022-10-06T23:57:55.351Z,70.40
